sensor_id;sensor_type;location;lat;lon;timestamp;P1;durP1;ratioP1;P2;durP2;ratioP2
1140;SDS011;559;48.628;8.924;2023-03-23T00:01:57;4.53;;;4.32;;
1140;SDS011;559;48.628;8.924;2023-03-23T00:04:24;4.80;;;4.60;;
1140;SDS011;559;48.628;8.924;2023-03-23T00:06:50;5.72;;;5.30;;
1140;SDS011;559;48.628;8.924;2023-03-23T00:09:17;5.10;;;4.90;;
1140;SDS011;559;48.628;8.924;2023-03-23T00:11:50;5.15;;;4.63;;
1140;SDS011;559;48.628;8.924;2023-03-23T00:14:21;5.38;;;5.15;;
1140;SDS011;559;48.628;8.924;2023-03-23T00:16:49;5.07;;;4.63;;
1140;SDS011;559;48.628;8.924;2023-03-23T00:19:16;5.57;;;5.07;;
1140;SDS011;559;48.628;8.924;2023-03-23T00:21:44;5.03;;;4.63;;
1140;SDS011;559;48.628;8.924;2023-03-23T00:24:11;4.47;;;4.28;;
1140;SDS011;559;48.628;8.924;2023-03-23T00:26:41;4.20;;;4.00;;
1140;SDS011;559;48.628;8.924;2023-03-23T00:29:11;3.97;;;3.70;;
1140;SDS011;559;48.628;8.924;2023-03-23T00:31:39;3.80;;;3.60;;
1140;SDS011;559;48.628;8.924;2023-03-23T00:34:05;3.85;;;3.65;;
1140;SDS011;559;48.628;8.924;2023-03-23T00:36:32;4.72;;;4.45;;
1140;SDS011;559;48.628;8.924;2023-03-23T00:39:00;4.47;;;4.20;;
1140;SDS011;559;48.628;8.924;2023-03-23T00:41:27;3.97;;;3.78;;
1140;SDS011;559;48.628;8.924;2023-03-23T00:43:54;3.63;;;3.53;;
1140;SDS011;559;48.628;8.924;2023-03-23T00:46:23;3.20;;;3.00;;
1140;SDS011;559;48.628;8.924;2023-03-23T00:48:50;3.38;;;2.92;;
1140;SDS011;559;48.628;8.924;2023-03-23T00:51:17;3.55;;;3.35;;
1140;SDS011;559;48.628;8.924;2023-03-23T00:53:44;2.90;;;2.80;;
1140;SDS011;559;48.628;8.924;2023-03-23T00:56:11;3.90;;;3.70;;
1140;SDS011;559;48.628;8.924;2023-03-23T00:58:38;3.97;;;3.78;;
1140;SDS011;559;48.628;8.924;2023-03-23T01:01:05;2.50;;;2.30;;
1140;SDS011;559;48.628;8.924;2023-03-23T01:03:33;2.50;;;2.40;;
1140;SDS011;559;48.628;8.924;2023-03-23T01:06:03;2.72;;;2.63;;
1140;SDS011;559;48.628;8.924;2023-03-23T01:08:31;2.30;;;2.20;;
1140;SDS011;559;48.628;8.924;2023-03-23T01:11:01;2.85;;;2.67;;
1140;SDS011;559;48.628;8.924;2023-03-23T01:13:29;2.88;;;2.58;;
1140;SDS011;559;48.628;8.924;2023-03-23T01:15:56;2.30;;;2.10;;
1140;SDS011;559;48.628;8.924;2023-03-23T01:18:22;2.70;;;2.50;;
1140;SDS011;559;48.628;8.924;2023-03-23T01:20:50;3.10;;;2.70;;
1140;SDS011;559;48.628;8.924;2023-03-23T01:23:18;3.15;;;2.95;;
1140;SDS011;559;48.628;8.924;2023-03-23T01:25:44;3.15;;;2.95;;
1140;SDS011;559;48.628;8.924;2023-03-23T01:28:11;3.33;;;3.13;;
1140;SDS011;559;48.628;8.924;2023-03-23T01:30:37;3.45;;;3.25;;
1140;SDS011;559;48.628;8.924;2023-03-23T01:33:04;3.78;;;3.58;;
1140;SDS011;559;48.628;8.924;2023-03-23T01:35:31;3.90;;;3.65;;
1140;SDS011;559;48.628;8.924;2023-03-23T01:37:58;4.10;;;3.80;;
1140;SDS011;559;48.628;8.924;2023-03-23T01:40:26;3.38;;;3.17;;
1140;SDS011;559;48.628;8.924;2023-03-23T01:42:53;3.45;;;3.25;;
1140;SDS011;559;48.628;8.924;2023-03-23T01:45:24;3.90;;;3.70;;
1140;SDS011;559;48.628;8.924;2023-03-23T01:48:00;3.50;;;3.30;;
1140;SDS011;559;48.628;8.924;2023-03-23T01:50:30;3.92;;;3.75;;
1140;SDS011;559;48.628;8.924;2023-03-23T01:53:02;4.75;;;4.55;;
1140;SDS011;559;48.628;8.924;2023-03-23T01:55:33;5.18;;;4.90;;
1140;SDS011;559;48.628;8.924;2023-03-23T01:58:01;5.22;;;4.88;;
1140;SDS011;559;48.628;8.924;2023-03-23T02:00:28;5.78;;;5.05;;
1140;SDS011;559;48.628;8.924;2023-03-23T02:02:56;4.60;;;4.30;;
1140;SDS011;559;48.628;8.924;2023-03-23T02:05:25;5.20;;;4.93;;
1140;SDS011;559;48.628;8.924;2023-03-23T02:07:54;4.75;;;4.55;;
1140;SDS011;559;48.628;8.924;2023-03-23T02:10:28;5.20;;;4.90;;
1140;SDS011;559;48.628;8.924;2023-03-23T02:12:56;4.57;;;4.10;;
1140;SDS011;559;48.628;8.924;2023-03-23T02:15:23;4.93;;;4.32;;
1140;SDS011;559;48.628;8.924;2023-03-23T02:17:53;5.07;;;4.78;;
1140;SDS011;559;48.628;8.924;2023-03-23T02:20:27;4.68;;;4.47;;
1140;SDS011;559;48.628;8.924;2023-03-23T02:25:59;4.80;;;4.60;;
1140;SDS011;559;48.628;8.924;2023-03-23T02:28:37;4.20;;;4.00;;
1140;SDS011;559;48.628;8.924;2023-03-23T02:31:26;5.07;;;4.78;;
1140;SDS011;559;48.628;8.924;2023-03-23T02:34:04;4.97;;;4.78;;
1140;SDS011;559;48.628;8.924;2023-03-23T02:36:33;4.40;;;4.20;;
1140;SDS011;559;48.628;8.924;2023-03-23T02:39:03;4.85;;;4.55;;
1140;SDS011;559;48.628;8.924;2023-03-23T02:41:34;4.95;;;4.75;;
1140;SDS011;559;48.628;8.924;2023-03-23T02:44:03;4.25;;;4.05;;
1140;SDS011;559;48.628;8.924;2023-03-23T02:46:31;4.43;;;4.22;;
1140;SDS011;559;48.628;8.924;2023-03-23T02:48:57;4.10;;;3.90;;
1140;SDS011;559;48.628;8.924;2023-03-23T02:51:26;4.20;;;4.00;;
1140;SDS011;559;48.628;8.924;2023-03-23T02:53:54;4.20;;;4.00;;
1140;SDS011;559;48.628;8.924;2023-03-23T02:56:21;5.18;;;4.97;;
1140;SDS011;559;48.628;8.924;2023-03-23T02:58:49;4.80;;;4.60;;
1140;SDS011;559;48.628;8.924;2023-03-23T03:04:18;5.13;;;4.93;;
1140;SDS011;559;48.628;8.924;2023-03-23T03:06:48;6.25;;;5.95;;
1140;SDS011;559;48.628;8.924;2023-03-23T03:09:24;6.25;;;5.85;;
1140;SDS011;559;48.628;8.924;2023-03-23T03:11:55;6.95;;;6.75;;
1140;SDS011;559;48.628;8.924;2023-03-23T03:14:24;6.78;;;6.45;;
1140;SDS011;559;48.628;8.924;2023-03-23T03:16:56;6.40;;;6.10;;
1140;SDS011;559;48.628;8.924;2023-03-23T03:19:27;6.88;;;6.63;;
1140;SDS011;559;48.628;8.924;2023-03-23T03:21:57;7.25;;;6.95;;
1140;SDS011;559;48.628;8.924;2023-03-23T03:24:25;7.45;;;7.25;;
1140;SDS011;559;48.628;8.924;2023-03-23T03:26:54;6.75;;;6.50;;
1140;SDS011;559;48.628;8.924;2023-03-23T03:29:25;6.88;;;6.57;;
1140;SDS011;559;48.628;8.924;2023-03-23T03:31:53;7.65;;;7.25;;
1140;SDS011;559;48.628;8.924;2023-03-23T03:34:20;6.50;;;6.20;;
1140;SDS011;559;48.628;8.924;2023-03-23T03:36:49;6.07;;;5.55;;
1140;SDS011;559;48.628;8.924;2023-03-23T03:39:18;5.80;;;5.53;;
1140;SDS011;559;48.628;8.924;2023-03-23T03:41:46;4.60;;;4.40;;
1140;SDS011;559;48.628;8.924;2023-03-23T03:44:13;5.20;;;5.00;;
1140;SDS011;559;48.628;8.924;2023-03-23T03:46:40;4.78;;;4.47;;
1140;SDS011;559;48.628;8.924;2023-03-23T03:49:07;5.65;;;5.45;;
1140;SDS011;559;48.628;8.924;2023-03-23T03:51:35;5.75;;;5.55;;
1140;SDS011;559;48.628;8.924;2023-03-23T03:54:02;5.22;;;4.93;;
1140;SDS011;559;48.628;8.924;2023-03-23T03:56:30;6.55;;;6.05;;
1140;SDS011;559;48.628;8.924;2023-03-23T03:58:58;5.40;;;5.10;;
1140;SDS011;559;48.628;8.924;2023-03-23T04:01:25;5.68;;;5.47;;
1140;SDS011;559;48.628;8.924;2023-03-23T04:03:51;4.93;;;4.72;;
1140;SDS011;559;48.628;8.924;2023-03-23T04:06:18;5.30;;;5.10;;
1140;SDS011;559;48.628;8.924;2023-03-23T04:08:44;5.35;;;5.15;;
1140;SDS011;559;48.628;8.924;2023-03-23T04:11:12;5.30;;;5.10;;
1140;SDS011;559;48.628;8.924;2023-03-23T04:13:40;6.18;;;5.97;;
1140;SDS011;559;48.628;8.924;2023-03-23T04:16:07;5.90;;;5.65;;
1140;SDS011;559;48.628;8.924;2023-03-23T04:18:34;6.95;;;6.47;;
1140;SDS011;559;48.628;8.924;2023-03-23T04:21:01;7.22;;;6.80;;
1140;SDS011;559;48.628;8.924;2023-03-23T04:23:28;7.32;;;6.63;;
1140;SDS011;559;48.628;8.924;2023-03-23T04:25:58;7.30;;;7.00;;
1140;SDS011;559;48.628;8.924;2023-03-23T04:28:25;9.60;;;9.20;;
1140;SDS011;559;48.628;8.924;2023-03-23T04:30:54;8.70;;;8.40;;
1140;SDS011;559;48.628;8.924;2023-03-23T04:33:21;9.70;;;9.25;;
1140;SDS011;559;48.628;8.924;2023-03-23T04:35:50;11.80;;;11.40;;
1140;SDS011;559;48.628;8.924;2023-03-23T04:38:18;11.77;;;11.18;;
1140;SDS011;559;48.628;8.924;2023-03-23T04:40:45;13.18;;;12.77;;
1140;SDS011;559;48.628;8.924;2023-03-23T04:43:13;12.45;;;11.95;;
1140;SDS011;559;48.628;8.924;2023-03-23T04:45:40;14.10;;;13.30;;
1140;SDS011;559;48.628;8.924;2023-03-23T04:48:11;14.10;;;13.70;;
1140;SDS011;559;48.628;8.924;2023-03-23T04:50:38;15.00;;;14.60;;
1140;SDS011;559;48.628;8.924;2023-03-23T04:53:05;15.48;;;14.98;;
1140;SDS011;559;48.628;8.924;2023-03-23T04:55:32;14.70;;;14.20;;
1140;SDS011;559;48.628;8.924;2023-03-23T04:58:01;14.30;;;13.75;;
1140;SDS011;559;48.628;8.924;2023-03-23T05:00:27;11.88;;;11.40;;
1140;SDS011;559;48.628;8.924;2023-03-23T05:02:54;11.13;;;10.38;;
1140;SDS011;559;48.628;8.924;2023-03-23T05:05:22;11.80;;;11.40;;
1140;SDS011;559;48.628;8.924;2023-03-23T05:07:49;11.43;;;11.02;;
1140;SDS011;559;48.628;8.924;2023-03-23T05:10:16;12.05;;;11.65;;
1140;SDS011;559;48.628;8.924;2023-03-23T05:12:43;12.77;;;12.10;;
1140;SDS011;559;48.628;8.924;2023-03-23T05:15:13;14.43;;;13.60;;
1140;SDS011;559;48.628;8.924;2023-03-23T05:17:40;11.55;;;11.15;;
1140;SDS011;559;48.628;8.924;2023-03-23T05:20:10;12.63;;;12.23;;
1140;SDS011;559;48.628;8.924;2023-03-23T05:22:39;12.07;;;11.68;;
1140;SDS011;559;48.628;8.924;2023-03-23T05:25:05;12.25;;;11.85;;
1140;SDS011;559;48.628;8.924;2023-03-23T05:27:34;11.65;;;10.95;;
1140;SDS011;559;48.628;8.924;2023-03-23T05:30:02;12.18;;;11.77;;
1140;SDS011;559;48.628;8.924;2023-03-23T05:32:29;11.60;;;11.10;;
1140;SDS011;559;48.628;8.924;2023-03-23T05:34:56;11.35;;;10.95;;
1140;SDS011;559;48.628;8.924;2023-03-23T05:37:22;11.07;;;10.48;;
1140;SDS011;559;48.628;8.924;2023-03-23T05:39:51;13.00;;;12.60;;
1140;SDS011;559;48.628;8.924;2023-03-23T05:42:20;12.27;;;11.88;;
1140;SDS011;559;48.628;8.924;2023-03-23T05:44:47;12.07;;;11.57;;
1140;SDS011;559;48.628;8.924;2023-03-23T05:47:13;11.57;;;10.82;;
1140;SDS011;559;48.628;8.924;2023-03-23T05:49:40;10.73;;;10.23;;
1140;SDS011;559;48.628;8.924;2023-03-23T05:52:07;11.75;;;11.35;;
1140;SDS011;559;48.628;8.924;2023-03-23T05:54:34;10.45;;;10.07;;
1140;SDS011;559;48.628;8.924;2023-03-23T05:57:02;11.90;;;11.27;;
1140;SDS011;559;48.628;8.924;2023-03-23T05:59:30;10.07;;;9.50;;
1140;SDS011;559;48.628;8.924;2023-03-23T06:01:58;9.43;;;9.02;;
1140;SDS011;559;48.628;8.924;2023-03-23T06:04:25;8.73;;;8.50;;
1140;SDS011;559;48.628;8.924;2023-03-23T06:06:52;9.45;;;9.10;;
1140;SDS011;559;48.628;8.924;2023-03-23T06:09:19;9.63;;;9.32;;
1140;SDS011;559;48.628;8.924;2023-03-23T06:11:46;10.35;;;9.80;;
1140;SDS011;559;48.628;8.924;2023-03-23T06:14:14;9.13;;;8.73;;
1140;SDS011;559;48.628;8.924;2023-03-23T06:16:41;9.43;;;9.13;;
1140;SDS011;559;48.628;8.924;2023-03-23T06:19:08;8.88;;;8.50;;
1140;SDS011;559;48.628;8.924;2023-03-23T06:21:36;9.95;;;9.55;;
1140;SDS011;559;48.628;8.924;2023-03-23T06:24:03;10.10;;;9.80;;
1140;SDS011;559;48.628;8.924;2023-03-23T06:26:30;15.50;;;14.80;;
1140;SDS011;559;48.628;8.924;2023-03-23T06:28:58;10.30;;;9.80;;
1140;SDS011;559;48.628;8.924;2023-03-23T06:31:26;10.98;;;10.43;;
1140;SDS011;559;48.628;8.924;2023-03-23T06:33:53;12.93;;;12.32;;
1140;SDS011;559;48.628;8.924;2023-03-23T06:36:20;10.88;;;10.13;;
1140;SDS011;559;48.628;8.924;2023-03-23T06:38:47;10.65;;;10.15;;
1140;SDS011;559;48.628;8.924;2023-03-23T06:41:14;10.30;;;9.90;;
1140;SDS011;559;48.628;8.924;2023-03-23T06:43:41;10.95;;;10.45;;
1140;SDS011;559;48.628;8.924;2023-03-23T06:46:10;12.15;;;11.55;;
1140;SDS011;559;48.628;8.924;2023-03-23T06:48:37;10.60;;;10.10;;
1140;SDS011;559;48.628;8.924;2023-03-23T06:51:04;9.68;;;9.35;;
1140;SDS011;559;48.628;8.924;2023-03-23T06:53:31;10.57;;;10.13;;
1140;SDS011;559;48.628;8.924;2023-03-23T06:55:58;9.60;;;9.20;;
1140;SDS011;559;48.628;8.924;2023-03-23T06:58:25;9.20;;;8.80;;
1140;SDS011;559;48.628;8.924;2023-03-23T07:00:53;9.63;;;9.20;;
1140;SDS011;559;48.628;8.924;2023-03-23T07:03:21;9.88;;;9.45;;
1140;SDS011;559;48.628;8.924;2023-03-23T07:05:49;9.98;;;9.52;;
1140;SDS011;559;48.628;8.924;2023-03-23T07:08:16;9.35;;;9.02;;
1140;SDS011;559;48.628;8.924;2023-03-23T07:10:43;10.98;;;10.57;;
1140;SDS011;559;48.628;8.924;2023-03-23T07:13:09;11.30;;;10.90;;
1140;SDS011;559;48.628;8.924;2023-03-23T07:15:36;15.52;;;14.32;;
1140;SDS011;559;48.628;8.924;2023-03-23T07:18:04;9.25;;;8.85;;
1140;SDS011;559;48.628;8.924;2023-03-23T07:20:30;11.05;;;10.60;;
1140;SDS011;559;48.628;8.924;2023-03-23T07:22:59;11.88;;;11.48;;
1140;SDS011;559;48.628;8.924;2023-03-23T07:25:26;10.93;;;10.20;;
1140;SDS011;559;48.628;8.924;2023-03-23T07:27:53;12.18;;;11.77;;
1140;SDS011;559;48.628;8.924;2023-03-23T07:30:20;12.98;;;12.48;;
1140;SDS011;559;48.628;8.924;2023-03-23T07:32:46;11.57;;;11.18;;
1140;SDS011;559;48.628;8.924;2023-03-23T07:35:13;11.27;;;10.77;;
1140;SDS011;559;48.628;8.924;2023-03-23T07:37:39;12.43;;;11.88;;
1140;SDS011;559;48.628;8.924;2023-03-23T07:40:08;12.38;;;11.77;;
1140;SDS011;559;48.628;8.924;2023-03-23T07:42:36;12.88;;;12.35;;
1140;SDS011;559;48.628;8.924;2023-03-23T07:45:04;11.53;;;11.13;;
1140;SDS011;559;48.628;8.924;2023-03-23T07:47:31;12.07;;;11.60;;
1140;SDS011;559;48.628;8.924;2023-03-23T07:49:58;13.00;;;12.50;;
1140;SDS011;559;48.628;8.924;2023-03-23T07:52:25;11.53;;;10.97;;
1140;SDS011;559;48.628;8.924;2023-03-23T07:54:51;10.18;;;9.77;;
1140;SDS011;559;48.628;8.924;2023-03-23T07:57:19;10.80;;;10.40;;
1140;SDS011;559;48.628;8.924;2023-03-23T07:59:45;10.77;;;10.27;;
1140;SDS011;559;48.628;8.924;2023-03-23T08:02:12;9.27;;;8.83;;
1140;SDS011;559;48.628;8.924;2023-03-23T08:04:39;9.50;;;9.10;;
1140;SDS011;559;48.628;8.924;2023-03-23T08:07:07;10.03;;;9.70;;
1140;SDS011;559;48.628;8.924;2023-03-23T08:09:37;11.30;;;10.80;;
1140;SDS011;559;48.628;8.924;2023-03-23T08:12:03;10.33;;;9.93;;
1140;SDS011;559;48.628;8.924;2023-03-23T08:14:31;10.70;;;10.20;;
1140;SDS011;559;48.628;8.924;2023-03-23T08:16:58;11.57;;;10.80;;
1140;SDS011;559;48.628;8.924;2023-03-23T08:19:25;10.40;;;9.90;;
1140;SDS011;559;48.628;8.924;2023-03-23T08:21:52;12.13;;;11.63;;
1140;SDS011;559;48.628;8.924;2023-03-23T08:24:18;13.60;;;13.00;;
1140;SDS011;559;48.628;8.924;2023-03-23T08:26:45;17.90;;;17.40;;
1140;SDS011;559;48.628;8.924;2023-03-23T08:29:11;18.50;;;17.90;;
1140;SDS011;559;48.628;8.924;2023-03-23T08:31:40;17.80;;;17.10;;
1140;SDS011;559;48.628;8.924;2023-03-23T08:34:07;18.77;;;18.17;;
1140;SDS011;559;48.628;8.924;2023-03-23T08:36:34;22.40;;;21.40;;
1140;SDS011;559;48.628;8.924;2023-03-23T08:39:02;22.03;;;21.30;;
1140;SDS011;559;48.628;8.924;2023-03-23T08:41:30;26.30;;;25.50;;
1140;SDS011;559;48.628;8.924;2023-03-23T08:43:57;29.47;;;28.67;;
1140;SDS011;559;48.628;8.924;2023-03-23T08:46:23;30.47;;;29.47;;
1140;SDS011;559;48.628;8.924;2023-03-23T08:48:51;27.67;;;26.47;;
1140;SDS011;559;48.628;8.924;2023-03-23T08:51:19;35.63;;;34.50;;
1140;SDS011;559;48.628;8.924;2023-03-23T08:53:46;27.67;;;26.77;;
1140;SDS011;559;48.628;8.924;2023-03-23T08:56:13;31.93;;;31.03;;
1140;SDS011;559;48.628;8.924;2023-03-23T08:58:40;31.40;;;30.40;;
1140;SDS011;559;48.628;8.924;2023-03-23T09:01:07;31.73;;;30.63;;
1140;SDS011;559;48.628;8.924;2023-03-23T09:03:36;28.57;;;27.77;;
1140;SDS011;559;48.628;8.924;2023-03-23T09:06:05;26.63;;;25.60;;
1140;SDS011;559;48.628;8.924;2023-03-23T09:08:33;30.70;;;29.80;;
1140;SDS011;559;48.628;8.924;2023-03-23T09:11:00;30.00;;;29.20;;
1140;SDS011;559;48.628;8.924;2023-03-23T09:13:27;34.30;;;33.30;;
1140;SDS011;559;48.628;8.924;2023-03-23T09:15:54;36.33;;;35.33;;
1140;SDS011;559;48.628;8.924;2023-03-23T09:18:20;37.33;;;36.30;;
1140;SDS011;559;48.628;8.924;2023-03-23T09:20:48;32.20;;;31.30;;
1140;SDS011;559;48.628;8.924;2023-03-23T09:23:17;32.27;;;31.07;;
1140;SDS011;559;48.628;8.924;2023-03-23T09:25:43;32.13;;;30.83;;
1140;SDS011;559;48.628;8.924;2023-03-23T09:28:11;34.87;;;33.67;;
1140;SDS011;559;48.628;8.924;2023-03-23T09:30:38;41.10;;;39.70;;
1140;SDS011;559;48.628;8.924;2023-03-23T09:33:05;37.70;;;36.60;;
1140;SDS011;559;48.628;8.924;2023-03-23T09:35:33;36.03;;;34.80;;
1140;SDS011;559;48.628;8.924;2023-03-23T09:38:00;49.70;;;48.10;;
1140;SDS011;559;48.628;8.924;2023-03-23T09:40:31;53.37;;;49.50;;
1140;SDS011;559;48.628;8.924;2023-03-23T09:43:07;53.63;;;51.73;;
1140;SDS011;559;48.628;8.924;2023-03-23T09:45:49;50.70;;;49.00;;
1140;SDS011;559;48.628;8.924;2023-03-23T09:48:24;52.77;;;51.27;;
1140;SDS011;559;48.628;8.924;2023-03-23T09:50:57;48.20;;;46.70;;
1140;SDS011;559;48.628;8.924;2023-03-23T09:53:28;44.87;;;43.47;;
1140;SDS011;559;48.628;8.924;2023-03-23T09:56:01;40.50;;;39.40;;
1140;SDS011;559;48.628;8.924;2023-03-23T09:58:30;39.57;;;38.47;;
1140;SDS011;559;48.628;8.924;2023-03-23T10:01:00;33.83;;;32.83;;
1140;SDS011;559;48.628;8.924;2023-03-23T10:03:30;34.83;;;33.73;;
1140;SDS011;559;48.628;8.924;2023-03-23T10:05:58;28.73;;;27.93;;
1140;SDS011;559;48.628;8.924;2023-03-23T10:08:26;26.30;;;25.40;;
1140;SDS011;559;48.628;8.924;2023-03-23T10:10:58;31.10;;;30.30;;
1140;SDS011;559;48.628;8.924;2023-03-23T10:13:33;32.63;;;31.73;;
1140;SDS011;559;48.628;8.924;2023-03-23T10:16:10;30.60;;;29.70;;
1140;SDS011;559;48.628;8.924;2023-03-23T10:18:41;40.93;;;39.83;;
1140;SDS011;559;48.628;8.924;2023-03-23T10:21:10;31.93;;;30.83;;
1140;SDS011;559;48.628;8.924;2023-03-23T10:23:45;34.53;;;33.27;;
1140;SDS011;559;48.628;8.924;2023-03-23T10:26:22;34.00;;;32.90;;
1140;SDS011;559;48.628;8.924;2023-03-23T10:28:57;30.60;;;29.40;;
1140;SDS011;559;48.628;8.924;2023-03-23T10:31:27;29.17;;;28.07;;
1140;SDS011;559;48.628;8.924;2023-03-23T10:33:57;30.70;;;29.80;;
1140;SDS011;559;48.628;8.924;2023-03-23T10:36:28;31.43;;;30.43;;
1140;SDS011;559;48.628;8.924;2023-03-23T10:38:58;37.13;;;36.03;;
1140;SDS011;559;48.628;8.924;2023-03-23T10:41:29;25.30;;;24.30;;
1140;SDS011;559;48.628;8.924;2023-03-23T10:43:57;17.60;;;17.10;;
1140;SDS011;559;48.628;8.924;2023-03-23T10:46:29;16.70;;;15.80;;
1140;SDS011;559;48.628;8.924;2023-03-23T10:49:01;14.27;;;13.80;;
1140;SDS011;559;48.628;8.924;2023-03-23T10:51:30;12.80;;;12.30;;
1140;SDS011;559;48.628;8.924;2023-03-23T10:53:58;10.37;;;9.77;;
1140;SDS011;559;48.628;8.924;2023-03-23T10:56:27;9.50;;;9.10;;
1140;SDS011;559;48.628;8.924;2023-03-23T10:58:56;12.37;;;11.77;;
1140;SDS011;559;48.628;8.924;2023-03-23T11:01:29;13.43;;;12.97;;
1140;SDS011;559;48.628;8.924;2023-03-23T11:03:56;12.43;;;11.07;;
1140;SDS011;559;48.628;8.924;2023-03-23T11:06:26;12.70;;;12.30;;
1140;SDS011;559;48.628;8.924;2023-03-23T11:08:55;11.77;;;11.30;;
1140;SDS011;559;48.628;8.924;2023-03-23T11:11:25;13.50;;;12.73;;
1140;SDS011;559;48.628;8.924;2023-03-23T11:13:57;14.13;;;12.90;;
1140;SDS011;559;48.628;8.924;2023-03-23T11:16:26;17.30;;;16.80;;
1140;SDS011;559;48.628;8.924;2023-03-23T11:18:54;31.23;;;30.13;;
1140;SDS011;559;48.628;8.924;2023-03-23T11:21:21;21.03;;;20.20;;
1140;SDS011;559;48.628;8.924;2023-03-23T11:23:50;18.87;;;18.20;;
1140;SDS011;559;48.628;8.924;2023-03-23T11:26:20;16.33;;;15.53;;
1140;SDS011;559;48.628;8.924;2023-03-23T11:28:48;15.80;;;15.30;;
1140;SDS011;559;48.628;8.924;2023-03-23T11:31:21;9.63;;;9.33;;
1140;SDS011;559;48.628;8.924;2023-03-23T11:33:50;12.47;;;12.07;;
1140;SDS011;559;48.628;8.924;2023-03-23T11:36:19;9.83;;;9.53;;
1140;SDS011;559;48.628;8.924;2023-03-23T11:38:51;9.50;;;9.10;;
1140;SDS011;559;48.628;8.924;2023-03-23T11:41:21;7.20;;;6.90;;
1140;SDS011;559;48.628;8.924;2023-03-23T11:43:50;7.80;;;7.30;;
1140;SDS011;559;48.628;8.924;2023-03-23T11:46:19;8.73;;;8.33;;
1140;SDS011;559;48.628;8.924;2023-03-23T11:48:57;8.20;;;7.93;;
1140;SDS011;559;48.628;8.924;2023-03-23T11:51:28;9.03;;;8.73;;
1140;SDS011;559;48.628;8.924;2023-03-23T11:53:58;7.57;;;5.60;;
1140;SDS011;559;48.628;8.924;2023-03-23T11:56:29;5.73;;;5.53;;
1140;SDS011;559;48.628;8.924;2023-03-23T11:58:57;5.37;;;5.17;;
1140;SDS011;559;48.628;8.924;2023-03-23T12:01:31;4.03;;;3.80;;
1140;SDS011;559;48.628;8.924;2023-03-23T12:06:58;4.70;;;4.40;;
1140;SDS011;559;48.628;8.924;2023-03-23T12:09:36;5.93;;;5.40;;
1140;SDS011;559;48.628;8.924;2023-03-23T12:12:12;4.47;;;3.47;;
1140;SDS011;559;48.628;8.924;2023-03-23T12:14:46;3.50;;;3.40;;
1140;SDS011;559;48.628;8.924;2023-03-23T12:17:19;6.03;;;3.33;;
1140;SDS011;559;48.628;8.924;2023-03-23T12:19:52;3.70;;;2.90;;
1140;SDS011;559;48.628;8.924;2023-03-23T12:22:33;3.03;;;2.83;;
1140;SDS011;559;48.628;8.924;2023-03-23T12:25:12;3.90;;;3.70;;
1140;SDS011;559;48.628;8.924;2023-03-23T12:27:58;6.03;;;5.57;;
1140;SDS011;559;48.628;8.924;2023-03-23T12:30:30;4.43;;;4.23;;
1140;SDS011;559;48.628;8.924;2023-03-23T12:33:02;3.37;;;3.07;;
1140;SDS011;559;48.628;8.924;2023-03-23T12:35:38;4.70;;;4.47;;
1140;SDS011;559;48.628;8.924;2023-03-23T12:38:14;3.57;;;3.27;;
1140;SDS011;559;48.628;8.924;2023-03-23T12:43:40;3.97;;;3.77;;
1140;SDS011;559;48.628;8.924;2023-03-23T12:46:16;5.10;;;4.83;;
1140;SDS011;559;48.628;8.924;2023-03-23T12:49:00;3.73;;;3.53;;
1140;SDS011;559;48.628;8.924;2023-03-23T12:51:30;4.17;;;3.97;;
1140;SDS011;559;48.628;8.924;2023-03-23T12:54:07;4.10;;;3.70;;
1140;SDS011;559;48.628;8.924;2023-03-23T12:56:37;3.30;;;3.00;;
1140;SDS011;559;48.628;8.924;2023-03-23T12:59:12;5.30;;;3.23;;
1140;SDS011;559;48.628;8.924;2023-03-23T13:01:42;4.57;;;2.67;;
1140;SDS011;559;48.628;8.924;2023-03-23T13:04:12;2.03;;;1.93;;
1140;SDS011;559;48.628;8.924;2023-03-23T13:06:42;3.07;;;2.43;;
1140;SDS011;559;48.628;8.924;2023-03-23T13:09:11;3.20;;;2.60;;
1140;SDS011;559;48.628;8.924;2023-03-23T13:11:41;3.00;;;2.53;;
1140;SDS011;559;48.628;8.924;2023-03-23T13:14:15;2.23;;;2.00;;
1140;SDS011;559;48.628;8.924;2023-03-23T13:16:49;2.10;;;1.90;;
1140;SDS011;559;48.628;8.924;2023-03-23T13:19:24;3.23;;;2.20;;
1140;SDS011;559;48.628;8.924;2023-03-23T13:21:54;2.50;;;2.37;;
1140;SDS011;559;48.628;8.924;2023-03-23T13:24:28;2.17;;;1.97;;
1140;SDS011;559;48.628;8.924;2023-03-23T13:26:56;2.63;;;2.43;;
1140;SDS011;559;48.628;8.924;2023-03-23T13:29:26;2.70;;;2.50;;
1140;SDS011;559;48.628;8.924;2023-03-23T13:32:03;2.53;;;2.33;;
1140;SDS011;559;48.628;8.924;2023-03-23T13:34:33;2.40;;;2.00;;
1140;SDS011;559;48.628;8.924;2023-03-23T13:37:01;3.33;;;1.77;;
1140;SDS011;559;48.628;8.924;2023-03-23T13:39:30;2.80;;;1.70;;
1140;SDS011;559;48.628;8.924;2023-03-23T13:42:00;2.20;;;1.80;;
1140;SDS011;559;48.628;8.924;2023-03-23T13:44:39;3.23;;;2.00;;
1140;SDS011;559;48.628;8.924;2023-03-23T13:47:16;2.33;;;2.07;;
1140;SDS011;559;48.628;8.924;2023-03-23T13:49:49;2.30;;;1.70;;
1140;SDS011;559;48.628;8.924;2023-03-23T13:52:18;3.13;;;2.13;;
1140;SDS011;559;48.628;8.924;2023-03-23T13:54:49;2.57;;;2.00;;
1140;SDS011;559;48.628;8.924;2023-03-23T13:57:33;3.97;;;1.80;;
1140;SDS011;559;48.628;8.924;2023-03-23T14:00:09;2.30;;;2.10;;
1140;SDS011;559;48.628;8.924;2023-03-23T14:02:57;3.20;;;1.80;;
1140;SDS011;559;48.628;8.924;2023-03-23T14:05:30;2.00;;;1.77;;
1140;SDS011;559;48.628;8.924;2023-03-23T14:07:59;1.93;;;1.83;;
1140;SDS011;559;48.628;8.924;2023-03-23T14:10:33;3.57;;;2.93;;
1140;SDS011;559;48.628;8.924;2023-03-23T14:13:00;12.20;;;3.43;;
1140;SDS011;559;48.628;8.924;2023-03-23T14:15:28;2.60;;;1.80;;
1140;SDS011;559;48.628;8.924;2023-03-23T14:17:55;2.40;;;2.10;;
1140;SDS011;559;48.628;8.924;2023-03-23T14:20:24;7.23;;;2.87;;
1140;SDS011;559;48.628;8.924;2023-03-23T14:22:54;2.33;;;1.90;;
1140;SDS011;559;48.628;8.924;2023-03-23T14:25:22;3.33;;;1.73;;
1140;SDS011;559;48.628;8.924;2023-03-23T14:27:52;2.20;;;2.00;;
1140;SDS011;559;48.628;8.924;2023-03-23T14:30:19;3.03;;;2.30;;
1140;SDS011;559;48.628;8.924;2023-03-23T14:32:47;2.30;;;1.87;;
1140;SDS011;559;48.628;8.924;2023-03-23T14:35:16;1.97;;;1.63;;
1140;SDS011;559;48.628;8.924;2023-03-23T14:37:46;2.37;;;2.17;;
1140;SDS011;559;48.628;8.924;2023-03-23T14:40:15;3.73;;;2.20;;
1140;SDS011;559;48.628;8.924;2023-03-23T14:42:43;4.83;;;2.30;;
1140;SDS011;559;48.628;8.924;2023-03-23T14:45:11;2.70;;;2.50;;
1140;SDS011;559;48.628;8.924;2023-03-23T14:47:42;2.40;;;2.07;;
1140;SDS011;559;48.628;8.924;2023-03-23T14:50:21;2.23;;;1.73;;
1140;SDS011;559;48.628;8.924;2023-03-23T14:52:50;2.03;;;1.33;;
1140;SDS011;559;48.628;8.924;2023-03-23T14:55:18;2.87;;;1.93;;
1140;SDS011;559;48.628;8.924;2023-03-23T14:57:46;3.20;;;1.73;;
1140;SDS011;559;48.628;8.924;2023-03-23T15:00:14;3.17;;;1.90;;
1140;SDS011;559;48.628;8.924;2023-03-23T15:02:43;1.80;;;1.70;;
1140;SDS011;559;48.628;8.924;2023-03-23T15:05:11;2.70;;;1.33;;
1140;SDS011;559;48.628;8.924;2023-03-23T15:07:40;2.40;;;1.60;;
1140;SDS011;559;48.628;8.924;2023-03-23T15:10:12;7.13;;;2.50;;
1140;SDS011;559;48.628;8.924;2023-03-23T15:12:44;2.43;;;2.23;;
1140;SDS011;559;48.628;8.924;2023-03-23T15:15:16;6.37;;;1.60;;
1140;SDS011;559;48.628;8.924;2023-03-23T15:17:46;2.30;;;2.10;;
1140;SDS011;559;48.628;8.924;2023-03-23T15:20:19;3.50;;;2.27;;
1140;SDS011;559;48.628;8.924;2023-03-23T15:22:48;1.80;;;1.70;;
1140;SDS011;559;48.628;8.924;2023-03-23T15:25:18;2.20;;;1.73;;
1140;SDS011;559;48.628;8.924;2023-03-23T15:27:50;3.20;;;2.23;;
1140;SDS011;559;48.628;8.924;2023-03-23T15:30:31;2.80;;;2.30;;
1140;SDS011;559;48.628;8.924;2023-03-23T15:33:02;1.50;;;1.40;;
1140;SDS011;559;48.628;8.924;2023-03-23T15:35:33;2.10;;;2.00;;
1140;SDS011;559;48.628;8.924;2023-03-23T15:38:01;3.80;;;2.60;;
1140;SDS011;559;48.628;8.924;2023-03-23T15:40:32;2.43;;;2.00;;
1140;SDS011;559;48.628;8.924;2023-03-23T15:43:07;2.67;;;2.20;;
1140;SDS011;559;48.628;8.924;2023-03-23T15:45:50;4.10;;;1.90;;